sensor_id;sensor_type;location;lat;lon;timestamp;P1;durP1;ratioP1;P2;durP2;ratioP2
55674;SDS011;41562;44.330;23.802;2022-10-23T00:03:55;4.32;;;3.80;;
55674;SDS011;41562;44.330;23.802;2022-10-23T00:06:24;5.35;;;4.88;;
55674;SDS011;41562;44.330;23.802;2022-10-23T00:08:53;2.70;;;2.50;;
55674;SDS011;41562;44.330;23.802;2022-10-23T00:11:23;4.45;;;3.20;;
55674;SDS011;41562;44.330;23.802;2022-10-23T00:13:53;4.15;;;1.58;;
55674;SDS011;41562;44.330;23.802;2022-10-23T00:16:22;3.40;;;3.10;;
55674;SDS011;41562;44.330;23.802;2022-10-23T00:18:49;3.28;;;3.00;;
55674;SDS011;41562;44.330;23.802;2022-10-23T00:21:17;1.85;;;1.75;;
55674;SDS011;41562;44.330;23.802;2022-10-23T00:23:44;1.65;;;1.65;;
55674;SDS011;41562;44.330;23.802;2022-10-23T00:26:12;3.17;;;2.97;;
55674;SDS011;41562;44.330;23.802;2022-10-23T00:28:41;3.03;;;2.55;;
55674;SDS011;41562;44.330;23.802;2022-10-23T00:31:10;1.70;;;1.63;;
55674;SDS011;41562;44.330;23.802;2022-10-23T00:33:38;4.68;;;4.30;;
55674;SDS011;41562;44.330;23.802;2022-10-23T00:36:06;4.10;;;3.70;;
55674;SDS011;41562;44.330;23.802;2022-10-23T00:38:35;2.20;;;2.08;;
55674;SDS011;41562;44.330;23.802;2022-10-23T00:41:03;1.95;;;1.80;;
55674;SDS011;41562;44.330;23.802;2022-10-23T00:43:32;4.68;;;2.60;;
55674;SDS011;41562;44.330;23.802;2022-10-23T00:46:00;2.80;;;2.63;;
55674;SDS011;41562;44.330;23.802;2022-10-23T00:48:28;2.55;;;2.15;;
55674;SDS011;41562;44.330;23.802;2022-10-23T00:50:55;1.15;;;1.15;;
55674;SDS011;41562;44.330;23.802;2022-10-23T00:53:23;2.92;;;2.67;;
55674;SDS011;41562;44.330;23.802;2022-10-23T00:55:51;3.22;;;2.75;;
55674;SDS011;41562;44.330;23.802;2022-10-23T00:58:19;1.25;;;1.10;;
55674;SDS011;41562;44.330;23.802;2022-10-23T01:03:17;1.83;;;1.73;;
55674;SDS011;41562;44.330;23.802;2022-10-23T01:06:04;1.80;;;1.67;;
55674;SDS011;41562;44.330;23.802;2022-10-23T01:08:54;5.00;;;3.20;;
55674;SDS011;41562;44.330;23.802;2022-10-23T01:11:31;6.20;;;3.17;;
55674;SDS011;41562;44.330;23.802;2022-10-23T01:14:13;3.85;;;2.88;;
55674;SDS011;41562;44.330;23.802;2022-10-23T01:28:30;3.45;;;2.47;;
55674;SDS011;41562;44.330;23.802;2022-10-23T01:31:03;1.85;;;1.75;;
55674;SDS011;41562;44.330;23.802;2022-10-23T01:33:38;3.92;;;2.45;;
55674;SDS011;41562;44.330;23.802;2022-10-23T01:36:11;3.72;;;2.75;;
55674;SDS011;41562;44.330;23.802;2022-10-23T01:38:43;3.45;;;3.15;;
55674;SDS011;41562;44.330;23.802;2022-10-23T01:41:35;2.72;;;2.15;;
55674;SDS011;41562;44.330;23.802;2022-10-23T01:44:10;1.40;;;1.33;;
55674;SDS011;41562;44.330;23.802;2022-10-23T01:46:47;4.38;;;1.70;;
55674;SDS011;41562;44.330;23.802;2022-10-23T01:49:19;10.60;;;3.42;;
55674;SDS011;41562;44.330;23.802;2022-10-23T01:51:53;4.55;;;3.70;;
55674;SDS011;41562;44.330;23.802;2022-10-23T01:54:24;7.45;;;2.80;;
55674;SDS011;41562;44.330;23.802;2022-10-23T01:56:55;1.60;;;1.50;;
55674;SDS011;41562;44.330;23.802;2022-10-23T01:59:29;1.08;;;1.08;;
55674;SDS011;41562;44.330;23.802;2022-10-23T02:02:00;2.45;;;2.17;;
55674;SDS011;41562;44.330;23.802;2022-10-23T02:04:37;3.30;;;2.63;;
55674;SDS011;41562;44.330;23.802;2022-10-23T02:07:08;4.95;;;4.13;;
55674;SDS011;41562;44.330;23.802;2022-10-23T02:09:36;3.03;;;2.35;;
55674;SDS011;41562;44.330;23.802;2022-10-23T02:12:08;3.40;;;3.10;;
55674;SDS011;41562;44.330;23.802;2022-10-23T02:14:43;2.85;;;1.88;;
55674;SDS011;41562;44.330;23.802;2022-10-23T02:17:23;2.17;;;2.08;;
55674;SDS011;41562;44.330;23.802;2022-10-23T02:22:37;1.92;;;1.83;;
55674;SDS011;41562;44.330;23.802;2022-10-23T02:25:12;1.48;;;1.40;;
55674;SDS011;41562;44.330;23.802;2022-10-23T02:27:45;0.75;;;0.75;;
55674;SDS011;41562;44.330;23.802;2022-10-23T02:30:17;3.30;;;1.38;;
55674;SDS011;41562;44.330;23.802;2022-10-23T02:32:47;1.10;;;1.08;;
55674;SDS011;41562;44.330;23.802;2022-10-23T02:35:17;0.90;;;0.90;;
55674;SDS011;41562;44.330;23.802;2022-10-23T02:37:55;1.23;;;1.15;;
55674;SDS011;41562;44.330;23.802;2022-10-23T02:40:34;0.32;;;0.32;;
55674;SDS011;41562;44.330;23.802;2022-10-23T02:43:13;1.15;;;0.95;;
55674;SDS011;41562;44.330;23.802;2022-10-23T02:48:44;0.90;;;0.90;;
55674;SDS011;41562;44.330;23.802;2022-10-23T02:51:17;2.20;;;1.35;;
55674;SDS011;41562;44.330;23.802;2022-10-23T02:56:29;0.37;;;0.37;;
55674;SDS011;41562;44.330;23.802;2022-10-23T02:59:22;0.63;;;0.63;;
55674;SDS011;41562;44.330;23.802;2022-10-23T03:01:52;1.50;;;1.40;;
55674;SDS011;41562;44.330;23.802;2022-10-23T03:04:27;0.50;;;0.50;;
55674;SDS011;41562;44.330;23.802;2022-10-23T03:06:57;1.00;;;1.00;;
55674;SDS011;41562;44.330;23.802;2022-10-23T03:09:25;1.17;;;1.17;;
55674;SDS011;41562;44.330;23.802;2022-10-23T03:11:53;1.17;;;1.10;;
55674;SDS011;41562;44.330;23.802;2022-10-23T03:14:20;1.52;;;1.42;;
55674;SDS011;41562;44.330;23.802;2022-10-23T03:16:48;0.43;;;0.43;;
55674;SDS011;41562;44.330;23.802;2022-10-23T03:19:16;0.30;;;0.30;;
55674;SDS011;41562;44.330;23.802;2022-10-23T03:21:43;0.38;;;0.38;;
55674;SDS011;41562;44.330;23.802;2022-10-23T03:24:11;0.20;;;0.20;;
55674;SDS011;41562;44.330;23.802;2022-10-23T03:26:38;0.30;;;0.30;;
55674;SDS011;41562;44.330;23.802;2022-10-23T03:29:06;0.60;;;0.60;;
55674;SDS011;41562;44.330;23.802;2022-10-23T03:31:34;0.10;;;0.10;;
55674;SDS011;41562;44.330;23.802;2022-10-23T03:34:01;0.30;;;0.30;;
55674;SDS011;41562;44.330;23.802;2022-10-23T03:36:34;1.38;;;0.50;;
55674;SDS011;41562;44.330;23.802;2022-10-23T03:39:02;0.38;;;0.38;;
55674;SDS011;41562;44.330;23.802;2022-10-23T03:41:30;0.22;;;0.22;;
55674;SDS011;41562;44.330;23.802;2022-10-23T03:43:57;0.55;;;0.55;;
55674;SDS011;41562;44.330;23.802;2022-10-23T03:46:25;0.80;;;0.40;;
55674;SDS011;41562;44.330;23.802;2022-10-23T03:48:53;0.35;;;0.35;;
55674;SDS011;41562;44.330;23.802;2022-10-23T03:51:21;1.20;;;0.77;;
55674;SDS011;41562;44.330;23.802;2022-10-23T03:53:49;1.48;;;0.70;;
55674;SDS011;41562;44.330;23.802;2022-10-23T03:56:27;6.40;;;1.13;;
55674;SDS011;41562;44.330;23.802;2022-10-23T03:58:54;0.73;;;0.73;;
55674;SDS011;41562;44.330;23.802;2022-10-23T04:01:25;0.85;;;0.52;;
55674;SDS011;41562;44.330;23.802;2022-10-23T04:03:54;0.20;;;0.20;;
55674;SDS011;41562;44.330;23.802;2022-10-23T04:06:21;1.40;;;0.82;;
55674;SDS011;41562;44.330;23.802;2022-10-23T04:08:49;1.08;;;1.02;;
55674;SDS011;41562;44.330;23.802;2022-10-23T04:11:18;0.28;;;0.28;;
55674;SDS011;41562;44.330;23.802;2022-10-23T04:13:46;0.10;;;0.10;;
55674;SDS011;41562;44.330;23.802;2022-10-23T04:16:14;0.45;;;0.43;;
55674;SDS011;41562;44.330;23.802;2022-10-23T04:18:43;0.10;;;0.10;;
55674;SDS011;41562;44.330;23.802;2022-10-23T04:21:11;0.13;;;0.13;;
55674;SDS011;41562;44.330;23.802;2022-10-23T04:23:39;0.28;;;0.28;;
55674;SDS011;41562;44.330;23.802;2022-10-23T04:26:08;0.20;;;0.20;;
55674;SDS011;41562;44.330;23.802;2022-10-23T04:28:36;0.75;;;0.50;;
55674;SDS011;41562;44.330;23.802;2022-10-23T04:31:04;0.15;;;0.15;;
55674;SDS011;41562;44.330;23.802;2022-10-23T04:33:31;0.43;;;0.43;;
55674;SDS011;41562;44.330;23.802;2022-10-23T04:35:59;0.25;;;0.17;;
55674;SDS011;41562;44.330;23.802;2022-10-23T04:38:27;1.83;;;0.77;;
55674;SDS011;41562;44.330;23.802;2022-10-23T04:40:57;0.00;;;0.00;;
55674;SDS011;41562;44.330;23.802;2022-10-23T04:43:24;0.20;;;0.20;;
55674;SDS011;41562;44.330;23.802;2022-10-23T04:45:52;0.35;;;0.35;;
55674;SDS011;41562;44.330;23.802;2022-10-23T04:48:19;0.17;;;0.17;;
55674;SDS011;41562;44.330;23.802;2022-10-23T04:50:57;0.05;;;0.05;;
55674;SDS011;41562;44.330;23.802;2022-10-23T04:53:30;0.45;;;0.45;;
55674;SDS011;41562;44.330;23.802;2022-10-23T04:55:58;1.55;;;0.20;;
55674;SDS011;41562;44.330;23.802;2022-10-23T04:58:26;0.10;;;0.10;;
55674;SDS011;41562;44.330;23.802;2022-10-23T05:00:55;2.28;;;0.73;;
55674;SDS011;41562;44.330;23.802;2022-10-23T05:03:23;1.45;;;0.45;;
55674;SDS011;41562;44.330;23.802;2022-10-23T05:05:53;0.13;;;0.13;;
55674;SDS011;41562;44.330;23.802;2022-10-23T05:08:22;0.25;;;0.20;;
55674;SDS011;41562;44.330;23.802;2022-10-23T05:10:57;0.22;;;0.22;;
55674;SDS011;41562;44.330;23.802;2022-10-23T05:13:33;0.10;;;0.10;;
55674;SDS011;41562;44.330;23.802;2022-10-23T05:16:07;0.55;;;0.55;;
55674;SDS011;41562;44.330;23.802;2022-10-23T05:18:39;0.38;;;0.38;;
55674;SDS011;41562;44.330;23.802;2022-10-23T05:21:13;0.95;;;0.82;;
55674;SDS011;41562;44.330;23.802;2022-10-23T05:23:47;0.43;;;0.40;;
55674;SDS011;41562;44.330;23.802;2022-10-23T05:26:15;0.45;;;0.20;;
55674;SDS011;41562;44.330;23.802;2022-10-23T05:28:43;1.75;;;1.65;;
55674;SDS011;41562;44.330;23.802;2022-10-23T05:31:10;0.20;;;0.20;;
55674;SDS011;41562;44.330;23.802;2022-10-23T05:33:39;0.10;;;0.10;;
55674;SDS011;41562;44.330;23.802;2022-10-23T05:36:06;0.20;;;0.20;;
55674;SDS011;41562;44.330;23.802;2022-10-23T05:38:35;0.60;;;0.60;;
55674;SDS011;41562;44.330;23.802;2022-10-23T05:41:02;0.45;;;0.45;;
55674;SDS011;41562;44.330;23.802;2022-10-23T05:43:30;0.52;;;0.43;;
55674;SDS011;41562;44.330;23.802;2022-10-23T05:45:57;0.43;;;0.43;;
55674;SDS011;41562;44.330;23.802;2022-10-23T05:48:27;0.30;;;0.30;;
55674;SDS011;41562;44.330;23.802;2022-10-23T05:51:05;0.03;;;0.03;;
55674;SDS011;41562;44.330;23.802;2022-10-23T05:53:35;0.43;;;0.22;;
55674;SDS011;41562;44.330;23.802;2022-10-23T05:56:08;0.17;;;0.17;;
55674;SDS011;41562;44.330;23.802;2022-10-23T05:58:35;0.00;;;0.00;;
55674;SDS011;41562;44.330;23.802;2022-10-23T06:01:06;0.28;;;0.28;;
55674;SDS011;41562;44.330;23.802;2022-10-23T06:03:35;0.10;;;0.10;;
55674;SDS011;41562;44.330;23.802;2022-10-23T06:06:03;0.45;;;0.45;;
55674;SDS011;41562;44.330;23.802;2022-10-23T06:08:31;0.10;;;0.10;;
55674;SDS011;41562;44.330;23.802;2022-10-23T06:11:10;0.05;;;0.05;;
55674;SDS011;41562;44.330;23.802;2022-10-23T06:13:42;0.90;;;0.65;;
55674;SDS011;41562;44.330;23.802;2022-10-23T06:16:16;0.10;;;0.10;;
55674;SDS011;41562;44.330;23.802;2022-10-23T06:18:47;0.45;;;0.20;;
55674;SDS011;41562;44.330;23.802;2022-10-23T06:21:15;0.00;;;0.00;;
55674;SDS011;41562;44.330;23.802;2022-10-23T06:23:44;0.10;;;0.10;;
55674;SDS011;41562;44.330;23.802;2022-10-23T06:26:13;0.03;;;0.03;;
55674;SDS011;41562;44.330;23.802;2022-10-23T06:28:42;0.10;;;0.10;;
55674;SDS011;41562;44.330;23.802;2022-10-23T06:31:11;0.10;;;0.10;;
55674;SDS011;41562;44.330;23.802;2022-10-23T06:33:40;1.30;;;0.75;;
55674;SDS011;41562;44.330;23.802;2022-10-23T06:36:08;0.10;;;0.10;;
55674;SDS011;41562;44.330;23.802;2022-10-23T06:38:38;0.28;;;0.28;;
55674;SDS011;41562;44.330;23.802;2022-10-23T06:41:10;0.17;;;0.17;;
55674;SDS011;41562;44.330;23.802;2022-10-23T06:43:39;0.57;;;0.57;;
55674;SDS011;41562;44.330;23.802;2022-10-23T06:46:10;0.95;;;0.93;;
55674;SDS011;41562;44.330;23.802;2022-10-23T06:48:41;0.28;;;0.28;;
55674;SDS011;41562;44.330;23.802;2022-10-23T06:51:13;0.08;;;0.08;;
55674;SDS011;41562;44.330;23.802;2022-10-23T06:53:43;0.03;;;0.03;;
55674;SDS011;41562;44.330;23.802;2022-10-23T06:56:17;0.30;;;0.30;;
55674;SDS011;41562;44.330;23.802;2022-10-23T06:58:48;0.20;;;0.20;;
55674;SDS011;41562;44.330;23.802;2022-10-23T07:01:19;0.10;;;0.10;;
55674;SDS011;41562;44.330;23.802;2022-10-23T07:03:47;0.10;;;0.10;;
55674;SDS011;41562;44.330;23.802;2022-10-23T07:06:16;0.10;;;0.10;;
55674;SDS011;41562;44.330;23.802;2022-10-23T07:08:47;0.30;;;0.30;;
55674;SDS011;41562;44.330;23.802;2022-10-23T07:11:14;0.05;;;0.05;;
55674;SDS011;41562;44.330;23.802;2022-10-23T07:13:52;0.10;;;0.10;;
55674;SDS011;41562;44.330;23.802;2022-10-23T07:16:25;0.10;;;0.10;;
55674;SDS011;41562;44.330;23.802;2022-10-23T07:18:54;1.33;;;0.52;;
55674;SDS011;41562;44.330;23.802;2022-10-23T07:21:30;0.32;;;0.32;;
55674;SDS011;41562;44.330;23.802;2022-10-23T07:24:01;1.27;;;0.52;;
55674;SDS011;41562;44.330;23.802;2022-10-23T07:29:03;0.22;;;0.22;;
55674;SDS011;41562;44.330;23.802;2022-10-23T07:31:37;0.40;;;0.05;;
55674;SDS011;41562;44.330;23.802;2022-10-23T07:34:08;0.50;;;0.50;;
55674;SDS011;41562;44.330;23.802;2022-10-23T07:36:38;0.25;;;0.25;;
55674;SDS011;41562;44.330;23.802;2022-10-23T07:39:09;0.10;;;0.10;;
55674;SDS011;41562;44.330;23.802;2022-10-23T07:41:40;0.13;;;0.13;;
55674;SDS011;41562;44.330;23.802;2022-10-23T07:44:11;0.20;;;0.20;;
55674;SDS011;41562;44.330;23.802;2022-10-23T07:46:41;0.30;;;0.30;;
55674;SDS011;41562;44.330;23.802;2022-10-23T07:49:09;0.17;;;0.17;;
55674;SDS011;41562;44.330;23.802;2022-10-23T07:51:43;0.08;;;0.08;;
55674;SDS011;41562;44.330;23.802;2022-10-23T07:54:17;0.10;;;0.10;;
55674;SDS011;41562;44.330;23.802;2022-10-23T07:56:45;1.77;;;0.30;;
55674;SDS011;41562;44.330;23.802;2022-10-23T07:59:12;0.00;;;0.00;;
55674;SDS011;41562;44.330;23.802;2022-10-23T08:01:41;1.00;;;0.85;;
55674;SDS011;41562;44.330;23.802;2022-10-23T08:04:13;0.17;;;0.10;;
55674;SDS011;41562;44.330;23.802;2022-10-23T08:06:40;0.03;;;0.03;;
55674;SDS011;41562;44.330;23.802;2022-10-23T08:09:08;0.22;;;0.22;;
55674;SDS011;41562;44.330;23.802;2022-10-23T08:11:35;0.00;;;0.00;;
55674;SDS011;41562;44.330;23.802;2022-10-23T08:14:03;0.20;;;0.20;;
55674;SDS011;41562;44.330;23.802;2022-10-23T08:19:06;0.17;;;0.17;;
55674;SDS011;41562;44.330;23.802;2022-10-23T08:21:34;0.10;;;0.10;;
55674;SDS011;41562;44.330;23.802;2022-10-23T08:24:01;0.22;;;0.22;;
55674;SDS011;41562;44.330;23.802;2022-10-23T08:26:29;0.00;;;0.00;;
55674;SDS011;41562;44.330;23.802;2022-10-23T08:28:57;0.20;;;0.20;;
55674;SDS011;41562;44.330;23.802;2022-10-23T08:31:25;0.00;;;0.00;;
55674;SDS011;41562;44.330;23.802;2022-10-23T08:33:53;0.00;;;0.00;;
55674;SDS011;41562;44.330;23.802;2022-10-23T08:36:22;0.50;;;0.50;;
55674;SDS011;41562;44.330;23.802;2022-10-23T08:38:55;0.00;;;0.00;;
55674;SDS011;41562;44.330;23.802;2022-10-23T08:41:31;0.17;;;0.10;;
55674;SDS011;41562;44.330;23.802;2022-10-23T08:47:23;0.52;;;0.47;;
55674;SDS011;41562;44.330;23.802;2022-10-23T08:50:35;0.32;;;0.32;;
55674;SDS011;41562;44.330;23.802;2022-10-23T08:55:46;0.10;;;0.10;;
55674;SDS011;41562;44.330;23.802;2022-10-23T08:58:22;0.00;;;0.00;;
55674;SDS011;41562;44.330;23.802;2022-10-23T09:00:56;0.10;;;0.10;;
55674;SDS011;41562;44.330;23.802;2022-10-23T09:03:24;0.47;;;0.47;;
55674;SDS011;41562;44.330;23.802;2022-10-23T09:06:02;0.10;;;0.10;;
55674;SDS011;41562;44.330;23.802;2022-10-23T09:08:46;0.22;;;0.22;;
55674;SDS011;41562;44.330;23.802;2022-10-23T09:19:58;6.90;;;0.52;;
55674;SDS011;41562;44.330;23.802;2022-10-23T09:25:08;0.00;;;0.00;;
55674;SDS011;41562;44.330;23.802;2022-10-23T09:27:43;0.40;;;0.40;;
55674;SDS011;41562;44.330;23.802;2022-10-23T09:30:51;0.22;;;0.22;;
55674;SDS011;41562;44.330;23.802;2022-10-23T09:36:00;0.00;;;0.00;;
55674;SDS011;41562;44.330;23.802;2022-10-23T09:38:33;0.40;;;0.20;;
55674;SDS011;41562;44.330;23.802;2022-10-23T09:46:50;0.10;;;0.10;;
55674;SDS011;41562;44.330;23.802;2022-10-23T09:49:29;0.52;;;0.40;;
55674;SDS011;41562;44.330;23.802;2022-10-23T09:54:32;0.15;;;0.10;;
55674;SDS011;41562;44.330;23.802;2022-10-23T10:00:14;0.20;;;0.20;;
55674;SDS011;41562;44.330;23.802;2022-10-23T10:03:01;0.25;;;0.10;;
55674;SDS011;41562;44.330;23.802;2022-10-23T10:05:30;0.20;;;0.20;;
55674;SDS011;41562;44.330;23.802;2022-10-23T10:11:01;0.10;;;0.10;;
55674;SDS011;41562;44.330;23.802;2022-10-23T10:16:19;0.22;;;0.20;;
55674;SDS011;41562;44.330;23.802;2022-10-23T10:21:44;0.80;;;0.13;;
55674;SDS011;41562;44.330;23.802;2022-10-23T10:32:38;0.00;;;0.00;;
55674;SDS011;41562;44.330;23.802;2022-10-23T10:35:18;0.55;;;0.10;;
55674;SDS011;41562;44.330;23.802;2022-10-23T10:44:02;0.10;;;0.10;;
55674;SDS011;41562;44.330;23.802;2022-10-23T10:46:52;0.00;;;0.00;;
55674;SDS011;41562;44.330;23.802;2022-10-23T10:55:26;0.15;;;0.15;;
55674;SDS011;41562;44.330;23.802;2022-10-23T10:58:12;0.00;;;0.00;;
55674;SDS011;41562;44.330;23.802;2022-10-23T11:00:51;0.10;;;0.10;;
55674;SDS011;41562;44.330;23.802;2022-10-23T11:03:26;0.00;;;0.00;;
55674;SDS011;41562;44.330;23.802;2022-10-23T11:06:04;0.00;;;0.00;;
55674;SDS011;41562;44.330;23.802;2022-10-23T11:08:39;0.22;;;0.22;;
55674;SDS011;41562;44.330;23.802;2022-10-23T11:11:34;0.08;;;0.08;;
55674;SDS011;41562;44.330;23.802;2022-10-23T11:14:03;0.10;;;0.10;;
55674;SDS011;41562;44.330;23.802;2022-10-23T11:16:33;0.15;;;0.15;;
55674;SDS011;41562;44.330;23.802;2022-10-23T11:19:05;0.10;;;0.10;;
55674;SDS011;41562;44.330;23.802;2022-10-23T11:21:51;0.00;;;0.00;;
55674;SDS011;41562;44.330;23.802;2022-10-23T11:24:34;0.00;;;0.00;;
55674;SDS011;41562;44.330;23.802;2022-10-23T11:32:36;0.00;;;0.00;;
55674;SDS011;41562;44.330;23.802;2022-10-23T11:40:48;0.20;;;0.10;;
55674;SDS011;41562;44.330;23.802;2022-10-23T11:43:25;0.28;;;0.28;;
55674;SDS011;41562;44.330;23.802;2022-10-23T11:46:13;0.15;;;0.10;;
55674;SDS011;41562;44.330;23.802;2022-10-23T11:48:54;0.10;;;0.10;;
55674;SDS011;41562;44.330;23.802;2022-10-23T11:56:37;0.03;;;0.03;;
55674;SDS011;41562;44.330;23.802;2022-10-23T11:59:25;0.35;;;0.28;;
55674;SDS011;41562;44.330;23.802;2022-10-23T12:01:55;0.10;;;0.10;;
55674;SDS011;41562;44.330;23.802;2022-10-23T12:04:53;0.22;;;0.22;;
55674;SDS011;41562;44.330;23.802;2022-10-23T12:07:27;0.10;;;0.10;;
55674;SDS011;41562;44.330;23.802;2022-10-23T12:17:42;0.10;;;0.10;;
55674;SDS011;41562;44.330;23.802;2022-10-23T12:25:38;0.38;;;0.17;;
55674;SDS011;41562;44.330;23.802;2022-10-23T12:31:01;0.22;;;0.20;;
55674;SDS011;41562;44.330;23.802;2022-10-23T12:34:49;0.00;;;0.00;;
55674;SDS011;41562;44.330;23.802;2022-10-23T12:36:57;0.00;;;0.00;;
55674;SDS011;41562;44.330;23.802;2022-10-23T12:39:32;4.85;;;0.32;;
55674;SDS011;41562;44.330;23.802;2022-10-23T12:42:01;0.00;;;0.00;;
55674;SDS011;41562;44.330;23.802;2022-10-23T12:44:29;0.08;;;0.08;;
55674;SDS011;41562;44.330;23.802;2022-10-23T12:47:00;0.10;;;0.10;;
55674;SDS011;41562;44.330;23.802;2022-10-23T12:49:30;0.30;;;0.20;;
55674;SDS011;41562;44.330;23.802;2022-10-23T12:54:29;0.00;;;0.00;;
55674;SDS011;41562;44.330;23.802;2022-10-23T12:57:00;0.45;;;0.05;;
55674;SDS011;41562;44.330;23.802;2022-10-23T12:59:35;0.47;;;0.10;;
55674;SDS011;41562;44.330;23.802;2022-10-23T13:02:21;0.10;;;0.10;;
55674;SDS011;41562;44.330;23.802;2022-10-23T13:04:57;0.10;;;0.10;;
55674;SDS011;41562;44.330;23.802;2022-10-23T13:07:35;0.10;;;0.10;;
55674;SDS011;41562;44.330;23.802;2022-10-23T13:10:12;0.30;;;0.17;;
55674;SDS011;41562;44.330;23.802;2022-10-23T13:12:42;0.20;;;0.20;;
55674;SDS011;41562;44.330;23.802;2022-10-23T13:15:18;0.40;;;0.40;;
55674;SDS011;41562;44.330;23.802;2022-10-23T13:20:27;0.15;;;0.15;;
55674;SDS011;41562;44.330;23.802;2022-10-23T13:25:29;0.00;;;0.00;;
55674;SDS011;41562;44.330;23.802;2022-10-23T13:30:39;0.00;;;0.00;;
55674;SDS011;41562;44.330;23.802;2022-10-23T13:35:56;1.13;;;0.28;;
55674;SDS011;41562;44.330;23.802;2022-10-23T13:38:29;0.35;;;0.35;;
55674;SDS011;41562;44.330;23.802;2022-10-23T13:40:57;0.20;;;0.20;;
55674;SDS011;41562;44.330;23.802;2022-10-23T13:43:26;0.15;;;0.15;;
55674;SDS011;41562;44.330;23.802;2022-10-23T13:45:56;0.10;;;0.10;;
55674;SDS011;41562;44.330;23.802;2022-10-23T13:48:27;0.20;;;0.13;;
55674;SDS011;41562;44.330;23.802;2022-10-23T13:51:00;0.40;;;0.40;;
55674;SDS011;41562;44.330;23.802;2022-10-23T13:53:37;0.40;;;0.40;;
55674;SDS011;41562;44.330;23.802;2022-10-23T13:56:08;0.00;;;0.00;;
55674;SDS011;41562;44.330;23.802;2022-10-23T13:58:37;0.40;;;0.30;;
55674;SDS011;41562;44.330;23.802;2022-10-23T14:04:01;0.10;;;0.10;;
55674;SDS011;41562;44.330;23.802;2022-10-23T14:06:30;0.00;;;0.00;;
55674;SDS011;41562;44.330;23.802;2022-10-23T14:08:59;0.20;;;0.20;;
55674;SDS011;41562;44.330;23.802;2022-10-23T14:11:27;0.15;;;0.15;;
55674;SDS011;41562;44.330;23.802;2022-10-23T14:13:55;0.60;;;0.20;;
55674;SDS011;41562;44.330;23.802;2022-10-23T14:16:25;0.00;;;0.00;;
55674;SDS011;41562;44.330;23.802;2022-10-23T14:18:57;0.00;;;0.00;;
55674;SDS011;41562;44.330;23.802;2022-10-23T14:21:24;0.05;;;0.05;;
55674;SDS011;41562;44.330;23.802;2022-10-23T14:23:52;0.30;;;0.25;;
55674;SDS011;41562;44.330;23.802;2022-10-23T14:26:24;0.00;;;0.00;;
55674;SDS011;41562;44.330;23.802;2022-10-23T14:28:55;0.13;;;0.13;;
55674;SDS011;41562;44.330;23.802;2022-10-23T14:31:30;0.08;;;0.03;;
55674;SDS011;41562;44.330;23.802;2022-10-23T14:33:58;0.10;;;0.10;;
55674;SDS011;41562;44.330;23.802;2022-10-23T14:36:28;0.10;;;0.10;;
55674;SDS011;41562;44.330;23.802;2022-10-23T14:39:15;1.35;;;0.30;;
55674;SDS011;41562;44.330;23.802;2022-10-23T14:41:47;0.47;;;0.20;;
55674;SDS011;41562;44.330;23.802;2022-10-23T14:44:17;0.20;;;0.20;;
55674;SDS011;41562;44.330;23.802;2022-10-23T14:46:45;0.52;;;0.52;;
55674;SDS011;41562;44.330;23.802;2022-10-23T14:49:13;0.20;;;0.20;;
55674;SDS011;41562;44.330;23.802;2022-10-23T14:51:41;0.25;;;0.17;;
55674;SDS011;41562;44.330;23.802;2022-10-23T14:54:13;0.10;;;0.10;;
55674;SDS011;41562;44.330;23.802;2022-10-23T14:56:44;0.08;;;0.08;;
55674;SDS011;41562;44.330;23.802;2022-10-23T14:59:14;0.13;;;0.13;;
55674;SDS011;41562;44.330;23.802;2022-10-23T15:04:14;0.47;;;0.40;;
55674;SDS011;41562;44.330;23.802;2022-10-23T15:06:42;0.00;;;0.00;;
55674;SDS011;41562;44.330;23.802;2022-10-23T15:09:13;0.40;;;0.40;;
55674;SDS011;41562;44.330;23.802;2022-10-23T15:11:41;0.30;;;0.30;;
55674;SDS011;41562;44.330;23.802;2022-10-23T15:14:12;0.10;;;0.10;;
55674;SDS011;41562;44.330;23.802;2022-10-23T15:16:39;0.00;;;0.00;;
55674;SDS011;41562;44.330;23.802;2022-10-23T15:19:13;0.88;;;0.80;;
55674;SDS011;41562;44.330;23.802;2022-10-23T15:21:45;0.57;;;0.57;;
55674;SDS011;41562;44.330;23.802;2022-10-23T15:24:16;0.13;;;0.13;;
55674;SDS011;41562;44.330;23.802;2022-10-23T15:26:44;0.88;;;0.85;;
55674;SDS011;41562;44.330;23.802;2022-10-23T15:29:12;0.10;;;0.10;;
55674;SDS011;41562;44.330;23.802;2022-10-23T15:31:42;0.77;;;0.30;;
55674;SDS011;41562;44.330;23.802;2022-10-23T15:34:21;0.85;;;0.40;;
55674;SDS011;41562;44.330;23.802;2022-10-23T15:36:54;1.55;;;0.45;;
55674;SDS011;41562;44.330;23.802;2022-10-23T15:39:24;0.20;;;0.20;;
55674;SDS011;41562;44.330;23.802;2022-10-23T15:41:54;0.43;;;0.43;;
55674;SDS011;41562;44.330;23.802;2022-10-23T15:44:30;0.40;;;0.30;;
55674;SDS011;41562;44.330;23.802;2022-10-23T15:47:04;0.28;;;0.28;;
55674;SDS011;41562;44.330;23.802;2022-10-23T15:49:38;0.77;;;0.20;;
55674;SDS011;41562;44.330;23.802;2022-10-23T15:52:09;0.10;;;0.10;;
55674;SDS011;41562;44.330;23.802;2022-10-23T15:54:37;0.55;;;0.55;;
55674;SDS011;41562;44.330;23.802;2022-10-23T15:57:08;0.73;;;0.63;;
55674;SDS011;41562;44.330;23.802;2022-10-23T15:59:36;1.00;;;0.52;;
55674;SDS011;41562;44.330;23.802;2022-10-23T16:02:08;0.55;;;0.35;;
55674;SDS011;41562;44.330;23.802;2022-10-23T16:04:37;0.60;;;0.60;;
55674;SDS011;41562;44.330;23.802;2022-10-23T16:07:05;0.65;;;0.60;;
55674;SDS011;41562;44.330;23.802;2022-10-23T16:09:36;0.70;;;0.70;;
55674;SDS011;41562;44.330;23.802;2022-10-23T16:12:04;0.20;;;0.20;;
55674;SDS011;41562;44.330;23.802;2022-10-23T16:14:32;0.73;;;0.10;;
55674;SDS011;41562;44.330;23.802;2022-10-23T16:16:59;0.95;;;0.50;;
55674;SDS011;41562;44.330;23.802;2022-10-23T16:19:29;0.27;;;0.27;;
55674;SDS011;41562;44.330;23.802;2022-10-23T16:21:57;0.47;;;0.47;;
55674;SDS011;41562;44.330;23.802;2022-10-23T16:24:25;0.30;;;0.30;;
55674;SDS011;41562;44.330;23.802;2022-10-23T16:26:53;0.30;;;0.30;;
55674;SDS011;41562;44.330;23.802;2022-10-23T16:29:24;1.08;;;0.75;;
55674;SDS011;41562;44.330;23.802;2022-10-23T16:31:57;0.50;;;0.50;;
55674;SDS011;41562;44.330;23.802;2022-10-23T16:34:30;0.93;;;0.55;;
55674;SDS011;41562;44.330;23.802;2022-10-23T16:36:59;0.80;;;0.65;;
55674;SDS011;41562;44.330;23.802;2022-10-23T16:39:33;0.32;;;0.32;;
55674;SDS011;41562;44.330;23.802;2022-10-23T16:42:03;0.30;;;0.28;;
55674;SDS011;41562;44.330;23.802;2022-10-23T16:44:31;0.30;;;0.30;;
55674;SDS011;41562;44.330;23.802;2022-10-23T16:47:01;1.65;;;1.50;;
55674;SDS011;41562;44.330;23.802;2022-10-23T16:49:32;0.75;;;0.55;;
55674;SDS011;41562;44.330;23.802;2022-10-23T16:52:08;0.47;;;0.47;;
55674;SDS011;41562;44.330;23.802;2022-10-23T16:57:05;0.35;;;0.35;;
55674;SDS011;41562;44.330;23.802;2022-10-23T16:59:34;0.32;;;0.32;;
55674;SDS011;41562;44.330;23.802;2022-10-23T17:02:02;0.38;;;0.38;;
55674;SDS011;41562;44.330;23.802;2022-10-23T17:04:31;0.30;;;0.20;;
55674;SDS011;41562;44.330;23.802;2022-10-23T17:06:58;0.15;;;0.15;;
55674;SDS011;41562;44.330;23.802;2022-10-23T17:09:42;0.40;;;0.40;;
55674;SDS011;41562;44.330;23.802;2022-10-23T17:12:19;0.30;;;0.30;;
55674;SDS011;41562;44.330;23.802;2022-10-23T17:14:59;0.68;;;0.43;;
55674;SDS011;41562;44.330;23.802;2022-10-23T17:17:30;0.17;;;0.17;;
55674;SDS011;41562;44.330;23.802;2022-10-23T17:20:00;12.35;;;1.00;;
55674;SDS011;41562;44.330;23.802;2022-10-23T17:22:38;0.32;;;0.32;;
55674;SDS011;41562;44.330;23.802;2022-10-23T17:25:09;0.55;;;0.55;;